sensor_id;sensor_type;location;lat;lon;timestamp;temperature;humidity
20125;DHT22;10223;50.862;4.360;2023-07-16T00:00:27;18.90;99.90
20125;DHT22;10223;50.862;4.360;2023-07-16T00:02:54;18.90;99.90
20125;DHT22;10223;50.862;4.360;2023-07-16T00:05:22;18.90;99.90
20125;DHT22;10223;50.862;4.360;2023-07-16T00:07:49;18.80;99.90
20125;DHT22;10223;50.862;4.360;2023-07-16T00:10:16;18.80;99.90
20125;DHT22;10223;50.862;4.360;2023-07-16T00:12:43;18.70;99.90
20125;DHT22;10223;50.862;4.360;2023-07-16T00:15:10;18.80;99.90
20125;DHT22;10223;50.862;4.360;2023-07-16T00:17:37;18.70;99.90
20125;DHT22;10223;50.862;4.360;2023-07-16T00:20:05;18.60;99.90
20125;DHT22;10223;50.862;4.360;2023-07-16T00:22:33;18.70;99.90
20125;DHT22;10223;50.862;4.360;2023-07-16T00:25:00;18.60;99.90
20125;DHT22;10223;50.862;4.360;2023-07-16T00:27:28;18.50;99.90
20125;DHT22;10223;50.862;4.360;2023-07-16T00:29:55;18.60;99.90
20125;DHT22;10223;50.862;4.360;2023-07-16T00:32:22;18.50;99.90
20125;DHT22;10223;50.862;4.360;2023-07-16T00:34:48;18.50;99.90
20125;DHT22;10223;50.862;4.360;2023-07-16T00:37:15;18.50;99.90
20125;DHT22;10223;50.862;4.360;2023-07-16T00:39:44;18.50;99.90
20125;DHT22;10223;50.862;4.360;2023-07-16T00:42:11;18.30;99.90
20125;DHT22;10223;50.862;4.360;2023-07-16T00:44:37;18.40;99.90
20125;DHT22;10223;50.862;4.360;2023-07-16T00:47:04;18.40;99.90
20125;DHT22;10223;50.862;4.360;2023-07-16T00:49:31;18.50;99.90
20125;DHT22;10223;50.862;4.360;2023-07-16T00:51:59;18.40;99.90
20125;DHT22;10223;50.862;4.360;2023-07-16T00:54:27;18.30;99.90
20125;DHT22;10223;50.862;4.360;2023-07-16T00:56:56;18.20;99.90
20125;DHT22;10223;50.862;4.360;2023-07-16T00:59:23;18.10;99.90
20125;DHT22;10223;50.862;4.360;2023-07-16T01:01:50;18.00;99.90
20125;DHT22;10223;50.862;4.360;2023-07-16T01:04:17;17.90;99.90
20125;DHT22;10223;50.862;4.360;2023-07-16T01:06:46;17.90;99.90
20125;DHT22;10223;50.862;4.360;2023-07-16T01:09:16;17.90;99.90
20125;DHT22;10223;50.862;4.360;2023-07-16T01:11:44;17.80;99.90
20125;DHT22;10223;50.862;4.360;2023-07-16T01:14:13;17.90;99.90
20125;DHT22;10223;50.862;4.360;2023-07-16T01:16:41;18.00;99.90
20125;DHT22;10223;50.862;4.360;2023-07-16T01:19:08;17.90;99.90
20125;DHT22;10223;50.862;4.360;2023-07-16T01:21:45;17.90;99.90
20125;DHT22;10223;50.862;4.360;2023-07-16T01:24:36;17.90;99.90
20125;DHT22;10223;50.862;4.360;2023-07-16T01:27:29;17.90;99.90
20125;DHT22;10223;50.862;4.360;2023-07-16T01:30:03;17.80;99.90
20125;DHT22;10223;50.862;4.360;2023-07-16T01:32:31;17.70;99.90
20125;DHT22;10223;50.862;4.360;2023-07-16T01:34:59;17.80;99.90
20125;DHT22;10223;50.862;4.360;2023-07-16T01:37:26;17.70;99.90
20125;DHT22;10223;50.862;4.360;2023-07-16T01:39:53;17.80;99.90
20125;DHT22;10223;50.862;4.360;2023-07-16T01:42:20;17.70;99.90
20125;DHT22;10223;50.862;4.360;2023-07-16T01:44:47;17.70;99.90
20125;DHT22;10223;50.862;4.360;2023-07-16T01:47:23;17.70;99.90
20125;DHT22;10223;50.862;4.360;2023-07-16T01:49:50;17.60;99.90
20125;DHT22;10223;50.862;4.360;2023-07-16T01:52:25;17.70;99.90
20125;DHT22;10223;50.862;4.360;2023-07-16T01:54:52;17.60;99.90
20125;DHT22;10223;50.862;4.360;2023-07-16T01:57:19;17.70;99.90
20125;DHT22;10223;50.862;4.360;2023-07-16T01:59:45;17.70;99.90
20125;DHT22;10223;50.862;4.360;2023-07-16T02:02:12;17.70;99.90
20125;DHT22;10223;50.862;4.360;2023-07-16T02:04:41;17.70;99.90
20125;DHT22;10223;50.862;4.360;2023-07-16T02:07:07;17.70;99.90
20125;DHT22;10223;50.862;4.360;2023-07-16T02:09:34;17.50;99.90
20125;DHT22;10223;50.862;4.360;2023-07-16T02:12:01;17.40;99.90
20125;DHT22;10223;50.862;4.360;2023-07-16T02:14:28;17.40;99.90
20125;DHT22;10223;50.862;4.360;2023-07-16T02:16:55;17.40;99.90
20125;DHT22;10223;50.862;4.360;2023-07-16T02:19:21;17.30;99.90
20125;DHT22;10223;50.862;4.360;2023-07-16T02:21:50;17.30;99.90
20125;DHT22;10223;50.862;4.360;2023-07-16T02:24:17;17.30;99.90
20125;DHT22;10223;50.862;4.360;2023-07-16T02:26:43;17.30;99.90
20125;DHT22;10223;50.862;4.360;2023-07-16T02:29:10;17.40;99.90
20125;DHT22;10223;50.862;4.360;2023-07-16T02:31:37;17.30;99.90
20125;DHT22;10223;50.862;4.360;2023-07-16T02:34:04;17.30;99.90
20125;DHT22;10223;50.862;4.360;2023-07-16T02:36:31;17.20;99.90
20125;DHT22;10223;50.862;4.360;2023-07-16T02:38:59;17.20;99.90
20125;DHT22;10223;50.862;4.360;2023-07-16T02:41:26;17.20;99.90
20125;DHT22;10223;50.862;4.360;2023-07-16T02:43:59;17.20;99.90
20125;DHT22;10223;50.862;4.360;2023-07-16T02:46:26;17.20;99.90
20125;DHT22;10223;50.862;4.360;2023-07-16T02:48:53;17.10;99.90
20125;DHT22;10223;50.862;4.360;2023-07-16T02:51:20;17.20;99.90
20125;DHT22;10223;50.862;4.360;2023-07-16T02:53:46;17.10;99.90
20125;DHT22;10223;50.862;4.360;2023-07-16T02:56:15;17.10;99.90
20125;DHT22;10223;50.862;4.360;2023-07-16T02:58:42;17.10;99.90
20125;DHT22;10223;50.862;4.360;2023-07-16T03:01:08;17.10;99.90
20125;DHT22;10223;50.862;4.360;2023-07-16T03:03:35;17.10;99.90
20125;DHT22;10223;50.862;4.360;2023-07-16T03:06:03;17.10;99.90
20125;DHT22;10223;50.862;4.360;2023-07-16T03:08:30;17.10;99.90
20125;DHT22;10223;50.862;4.360;2023-07-16T03:10:57;17.10;99.90
20125;DHT22;10223;50.862;4.360;2023-07-16T03:13:25;17.00;99.90
20125;DHT22;10223;50.862;4.360;2023-07-16T03:15:52;17.00;99.90
20125;DHT22;10223;50.862;4.360;2023-07-16T03:18:19;17.00;99.90
20125;DHT22;10223;50.862;4.360;2023-07-16T03:20:45;17.10;99.90
20125;DHT22;10223;50.862;4.360;2023-07-16T03:23:12;17.00;99.90
20125;DHT22;10223;50.862;4.360;2023-07-16T03:25:39;17.10;99.90
20125;DHT22;10223;50.862;4.360;2023-07-16T03:28:06;17.20;99.90
20125;DHT22;10223;50.862;4.360;2023-07-16T03:30:34;16.90;99.90
20125;DHT22;10223;50.862;4.360;2023-07-16T03:33:02;16.90;99.90
20125;DHT22;10223;50.862;4.360;2023-07-16T03:35:30;16.80;99.90
20125;DHT22;10223;50.862;4.360;2023-07-16T03:37:57;16.80;99.90
20125;DHT22;10223;50.862;4.360;2023-07-16T03:40:25;16.80;99.90
20125;DHT22;10223;50.862;4.360;2023-07-16T03:42:52;16.80;99.90
20125;DHT22;10223;50.862;4.360;2023-07-16T03:45:19;16.70;99.90
20125;DHT22;10223;50.862;4.360;2023-07-16T03:47:48;16.70;99.90
20125;DHT22;10223;50.862;4.360;2023-07-16T03:50:14;16.70;99.90
20125;DHT22;10223;50.862;4.360;2023-07-16T03:52:41;16.60;99.90
20125;DHT22;10223;50.862;4.360;2023-07-16T03:55:09;16.60;99.90
20125;DHT22;10223;50.862;4.360;2023-07-16T03:57:36;16.60;99.90
20125;DHT22;10223;50.862;4.360;2023-07-16T04:00:03;16.60;99.90
20125;DHT22;10223;50.862;4.360;2023-07-16T04:02:31;16.60;99.90
20125;DHT22;10223;50.862;4.360;2023-07-16T04:05:00;16.60;99.90
20125;DHT22;10223;50.862;4.360;2023-07-16T04:07:26;16.50;99.90
20125;DHT22;10223;50.862;4.360;2023-07-16T04:09:53;16.60;99.90
20125;DHT22;10223;50.862;4.360;2023-07-16T04:12:20;16.40;99.90
20125;DHT22;10223;50.862;4.360;2023-07-16T04:14:47;16.40;99.90
20125;DHT22;10223;50.862;4.360;2023-07-16T04:17:16;16.40;99.90
20125;DHT22;10223;50.862;4.360;2023-07-16T04:19:43;16.50;99.90
20125;DHT22;10223;50.862;4.360;2023-07-16T04:22:11;16.40;99.90
20125;DHT22;10223;50.862;4.360;2023-07-16T04:24:38;16.50;99.90
20125;DHT22;10223;50.862;4.360;2023-07-16T04:27:05;16.40;99.90
20125;DHT22;10223;50.862;4.360;2023-07-16T04:29:32;16.40;99.90
20125;DHT22;10223;50.862;4.360;2023-07-16T04:31:59;16.30;99.90
20125;DHT22;10223;50.862;4.360;2023-07-16T04:34:26;16.40;99.90
20125;DHT22;10223;50.862;4.360;2023-07-16T04:36:53;16.40;99.90
20125;DHT22;10223;50.862;4.360;2023-07-16T04:39:21;16.30;99.90
20125;DHT22;10223;50.862;4.360;2023-07-16T04:41:48;16.30;99.90
20125;DHT22;10223;50.862;4.360;2023-07-16T04:44:15;16.30;99.90
20125;DHT22;10223;50.862;4.360;2023-07-16T04:46:42;16.30;99.90
20125;DHT22;10223;50.862;4.360;2023-07-16T04:49:08;16.30;99.90
20125;DHT22;10223;50.862;4.360;2023-07-16T04:51:35;16.20;99.90
20125;DHT22;10223;50.862;4.360;2023-07-16T04:54:02;16.20;99.90
20125;DHT22;10223;50.862;4.360;2023-07-16T04:56:30;16.20;99.90
20125;DHT22;10223;50.862;4.360;2023-07-16T04:58:57;16.20;99.90
20125;DHT22;10223;50.862;4.360;2023-07-16T05:01:24;16.20;99.90
20125;DHT22;10223;50.862;4.360;2023-07-16T05:03:52;16.20;99.90
20125;DHT22;10223;50.862;4.360;2023-07-16T05:06:19;16.40;99.90
20125;DHT22;10223;50.862;4.360;2023-07-16T05:08:46;16.20;99.90
20125;DHT22;10223;50.862;4.360;2023-07-16T05:11:13;16.20;99.90
20125;DHT22;10223;50.862;4.360;2023-07-16T05:13:41;16.20;99.90
20125;DHT22;10223;50.862;4.360;2023-07-16T05:16:08;16.40;99.90
20125;DHT22;10223;50.862;4.360;2023-07-16T05:18:35;16.30;99.90
20125;DHT22;10223;50.862;4.360;2023-07-16T05:21:02;16.30;99.90
20125;DHT22;10223;50.862;4.360;2023-07-16T05:23:29;16.40;99.90
20125;DHT22;10223;50.862;4.360;2023-07-16T05:25:56;16.50;99.90
20125;DHT22;10223;50.862;4.360;2023-07-16T05:28:22;16.60;99.90
20125;DHT22;10223;50.862;4.360;2023-07-16T05:30:59;16.50;99.90
20125;DHT22;10223;50.862;4.360;2023-07-16T05:33:26;16.50;99.90
20125;DHT22;10223;50.862;4.360;2023-07-16T05:35:53;16.70;99.90
20125;DHT22;10223;50.862;4.360;2023-07-16T05:38:20;16.70;99.90
20125;DHT22;10223;50.862;4.360;2023-07-16T05:40:46;16.50;99.90
20125;DHT22;10223;50.862;4.360;2023-07-16T05:43:13;16.60;99.90
20125;DHT22;10223;50.862;4.360;2023-07-16T05:45:40;16.70;99.90
20125;DHT22;10223;50.862;4.360;2023-07-16T05:48:09;16.50;99.90
20125;DHT22;10223;50.862;4.360;2023-07-16T05:50:36;16.50;99.90
20125;DHT22;10223;50.862;4.360;2023-07-16T05:53:03;16.50;99.90
20125;DHT22;10223;50.862;4.360;2023-07-16T05:55:29;16.50;99.90
20125;DHT22;10223;50.862;4.360;2023-07-16T05:57:56;16.60;99.90
20125;DHT22;10223;50.862;4.360;2023-07-16T06:00:23;16.80;99.90
20125;DHT22;10223;50.862;4.360;2023-07-16T06:02:50;16.80;99.90
20125;DHT22;10223;50.862;4.360;2023-07-16T06:05:18;16.80;99.90
20125;DHT22;10223;50.862;4.360;2023-07-16T06:07:45;16.80;99.90
20125;DHT22;10223;50.862;4.360;2023-07-16T06:10:15;16.70;99.90
20125;DHT22;10223;50.862;4.360;2023-07-16T06:12:42;16.70;99.90
20125;DHT22;10223;50.862;4.360;2023-07-16T06:15:09;16.90;99.90
20125;DHT22;10223;50.862;4.360;2023-07-16T06:17:36;16.80;99.90
20125;DHT22;10223;50.862;4.360;2023-07-16T06:20:03;16.90;99.90
20125;DHT22;10223;50.862;4.360;2023-07-16T06:22:32;16.80;99.90
20125;DHT22;10223;50.862;4.360;2023-07-16T06:24:59;17.00;99.90
20125;DHT22;10223;50.862;4.360;2023-07-16T06:27:26;17.00;99.90
20125;DHT22;10223;50.862;4.360;2023-07-16T06:29:53;16.90;99.90
20125;DHT22;10223;50.862;4.360;2023-07-16T06:32:20;17.00;99.90
20125;DHT22;10223;50.862;4.360;2023-07-16T06:34:47;16.90;99.90
20125;DHT22;10223;50.862;4.360;2023-07-16T06:37:14;17.10;99.90
20125;DHT22;10223;50.862;4.360;2023-07-16T06:39:42;17.10;99.90
20125;DHT22;10223;50.862;4.360;2023-07-16T06:42:09;17.00;99.90
20125;DHT22;10223;50.862;4.360;2023-07-16T06:44:35;17.10;99.90
20125;DHT22;10223;50.862;4.360;2023-07-16T06:47:03;17.20;99.90
20125;DHT22;10223;50.862;4.360;2023-07-16T06:49:30;17.40;99.90
20125;DHT22;10223;50.862;4.360;2023-07-16T06:51:57;17.30;99.90
20125;DHT22;10223;50.862;4.360;2023-07-16T06:54:24;17.50;99.90
20125;DHT22;10223;50.862;4.360;2023-07-16T06:56:52;17.50;99.90
20125;DHT22;10223;50.862;4.360;2023-07-16T06:59:19;17.60;99.90
20125;DHT22;10223;50.862;4.360;2023-07-16T07:01:46;17.70;99.90
20125;DHT22;10223;50.862;4.360;2023-07-16T07:04:13;17.60;99.90
20125;DHT22;10223;50.862;4.360;2023-07-16T07:06:40;17.70;99.90
20125;DHT22;10223;50.862;4.360;2023-07-16T07:09:06;17.80;99.90
20125;DHT22;10223;50.862;4.360;2023-07-16T07:11:33;17.90;99.90
20125;DHT22;10223;50.862;4.360;2023-07-16T07:14:01;17.90;99.90
20125;DHT22;10223;50.862;4.360;2023-07-16T07:16:28;17.70;99.90
20125;DHT22;10223;50.862;4.360;2023-07-16T07:18:56;17.70;99.90
20125;DHT22;10223;50.862;4.360;2023-07-16T07:21:25;17.80;99.90
20125;DHT22;10223;50.862;4.360;2023-07-16T07:23:52;17.80;99.90
20125;DHT22;10223;50.862;4.360;2023-07-16T07:26:19;17.90;99.90
20125;DHT22;10223;50.862;4.360;2023-07-16T07:28:46;18.20;99.90
20125;DHT22;10223;50.862;4.360;2023-07-16T07:31:14;18.20;99.90
20125;DHT22;10223;50.862;4.360;2023-07-16T07:33:41;18.40;99.90
20125;DHT22;10223;50.862;4.360;2023-07-16T07:36:08;18.70;99.90
20125;DHT22;10223;50.862;4.360;2023-07-16T07:38:34;19.00;99.90
20125;DHT22;10223;50.862;4.360;2023-07-16T07:41:04;18.60;99.90
20125;DHT22;10223;50.862;4.360;2023-07-16T07:43:31;18.60;99.90
20125;DHT22;10223;50.862;4.360;2023-07-16T07:45:58;18.50;99.90
20125;DHT22;10223;50.862;4.360;2023-07-16T07:48:26;18.60;99.90
20125;DHT22;10223;50.862;4.360;2023-07-16T07:50:53;18.70;99.90
20125;DHT22;10223;50.862;4.360;2023-07-16T07:53:20;18.90;99.90
20125;DHT22;10223;50.862;4.360;2023-07-16T07:55:47;19.40;99.90
20125;DHT22;10223;50.862;4.360;2023-07-16T07:58:14;19.10;99.90
20125;DHT22;10223;50.862;4.360;2023-07-16T08:00:41;19.10;99.90
20125;DHT22;10223;50.862;4.360;2023-07-16T08:03:08;19.20;99.90
20125;DHT22;10223;50.862;4.360;2023-07-16T08:05:36;19.10;99.90
20125;DHT22;10223;50.862;4.360;2023-07-16T08:08:03;19.00;99.90
20125;DHT22;10223;50.862;4.360;2023-07-16T08:10:30;19.10;99.90
20125;DHT22;10223;50.862;4.360;2023-07-16T08:12:57;19.30;99.90
20125;DHT22;10223;50.862;4.360;2023-07-16T08:15:24;19.60;99.90
20125;DHT22;10223;50.862;4.360;2023-07-16T08:17:50;19.80;99.90
20125;DHT22;10223;50.862;4.360;2023-07-16T08:20:17;20.20;99.90
20125;DHT22;10223;50.862;4.360;2023-07-16T08:22:46;20.40;99.90
20125;DHT22;10223;50.862;4.360;2023-07-16T08:25:12;20.30;99.90
20125;DHT22;10223;50.862;4.360;2023-07-16T08:27:39;20.00;99.90
20125;DHT22;10223;50.862;4.360;2023-07-16T08:30:07;19.80;99.90
20125;DHT22;10223;50.862;4.360;2023-07-16T08:32:34;19.70;99.90
20125;DHT22;10223;50.862;4.360;2023-07-16T08:35:01;20.00;99.90
20125;DHT22;10223;50.862;4.360;2023-07-16T08:37:29;20.30;99.90
20125;DHT22;10223;50.862;4.360;2023-07-16T08:39:57;20.30;99.90
20125;DHT22;10223;50.862;4.360;2023-07-16T08:42:24;20.40;99.90
20125;DHT22;10223;50.862;4.360;2023-07-16T08:44:51;20.30;99.90
20125;DHT22;10223;50.862;4.360;2023-07-16T08:47:18;20.30;99.90
20125;DHT22;10223;50.862;4.360;2023-07-16T08:49:53;20.20;99.90
20125;DHT22;10223;50.862;4.360;2023-07-16T08:52:20;20.20;99.90
20125;DHT22;10223;50.862;4.360;2023-07-16T08:54:47;20.00;99.90
20125;DHT22;10223;50.862;4.360;2023-07-16T08:57:15;19.80;99.90
20125;DHT22;10223;50.862;4.360;2023-07-16T08:59:43;19.80;99.90
20125;DHT22;10223;50.862;4.360;2023-07-16T09:02:11;19.70;99.90
20125;DHT22;10223;50.862;4.360;2023-07-16T09:04:39;19.80;99.90
20125;DHT22;10223;50.862;4.360;2023-07-16T09:07:05;19.70;99.90
20125;DHT22;10223;50.862;4.360;2023-07-16T09:09:32;19.80;99.90
20125;DHT22;10223;50.862;4.360;2023-07-16T09:11:59;20.00;99.90
20125;DHT22;10223;50.862;4.360;2023-07-16T09:14:27;20.10;99.90
20125;DHT22;10223;50.862;4.360;2023-07-16T09:16:54;20.10;99.90
20125;DHT22;10223;50.862;4.360;2023-07-16T09:19:21;20.40;99.90
20125;DHT22;10223;50.862;4.360;2023-07-16T09:21:49;20.20;99.90
20125;DHT22;10223;50.862;4.360;2023-07-16T09:24:17;20.20;99.90
20125;DHT22;10223;50.862;4.360;2023-07-16T09:26:50;19.90;99.90
20125;DHT22;10223;50.862;4.360;2023-07-16T09:29:17;19.80;99.90
20125;DHT22;10223;50.862;4.360;2023-07-16T09:31:54;19.80;99.90
20125;DHT22;10223;50.862;4.360;2023-07-16T09:34:21;19.80;99.90
20125;DHT22;10223;50.862;4.360;2023-07-16T09:36:48;19.70;99.90
20125;DHT22;10223;50.862;4.360;2023-07-16T09:39:17;19.70;99.90
20125;DHT22;10223;50.862;4.360;2023-07-16T09:41:46;19.60;99.90
20125;DHT22;10223;50.862;4.360;2023-07-16T09:44:14;19.70;99.90
20125;DHT22;10223;50.862;4.360;2023-07-16T09:46:41;19.60;99.90
20125;DHT22;10223;50.862;4.360;2023-07-16T09:49:10;19.60;99.90
20125;DHT22;10223;50.862;4.360;2023-07-16T09:51:38;19.60;99.90
20125;DHT22;10223;50.862;4.360;2023-07-16T09:54:06;19.70;99.90
20125;DHT22;10223;50.862;4.360;2023-07-16T09:56:35;19.50;99.90
20125;DHT22;10223;50.862;4.360;2023-07-16T09:59:06;19.70;99.90
20125;DHT22;10223;50.862;4.360;2023-07-16T10:01:36;19.60;99.90
20125;DHT22;10223;50.862;4.360;2023-07-16T10:04:14;19.70;99.90
20125;DHT22;10223;50.862;4.360;2023-07-16T10:06:51;19.80;99.90
20125;DHT22;10223;50.862;4.360;2023-07-16T10:09:32;19.60;99.90
20125;DHT22;10223;50.862;4.360;2023-07-16T10:12:13;19.70;99.90
20125;DHT22;10223;50.862;4.360;2023-07-16T10:14:42;19.60;99.90
20125;DHT22;10223;50.862;4.360;2023-07-16T10:17:13;19.70;99.90
20125;DHT22;10223;50.862;4.360;2023-07-16T10:19:55;19.50;99.90
20125;DHT22;10223;50.862;4.360;2023-07-16T10:22:36;19.60;99.90
20125;DHT22;10223;50.862;4.360;2023-07-16T10:25:08;19.70;99.90
20125;DHT22;10223;50.862;4.360;2023-07-16T10:27:35;19.80;99.90
20125;DHT22;10223;50.862;4.360;2023-07-16T10:30:04;19.80;99.90
20125;DHT22;10223;50.862;4.360;2023-07-16T10:32:32;19.80;99.90
20125;DHT22;10223;50.862;4.360;2023-07-16T10:35:01;20.00;99.90
20125;DHT22;10223;50.862;4.360;2023-07-16T10:37:29;19.90;99.90
20125;DHT22;10223;50.862;4.360;2023-07-16T10:39:57;19.80;99.90
20125;DHT22;10223;50.862;4.360;2023-07-16T10:42:24;19.80;99.90
20125;DHT22;10223;50.862;4.360;2023-07-16T10:44:53;19.70;99.90
20125;DHT22;10223;50.862;4.360;2023-07-16T10:47:22;19.70;99.90
20125;DHT22;10223;50.862;4.360;2023-07-16T10:49:52;19.80;99.90
20125;DHT22;10223;50.862;4.360;2023-07-16T10:52:21;19.90;99.90
20125;DHT22;10223;50.862;4.360;2023-07-16T10:54:48;19.90;99.90
20125;DHT22;10223;50.862;4.360;2023-07-16T10:57:17;20.00;99.90
20125;DHT22;10223;50.862;4.360;2023-07-16T10:59:45;20.10;99.90
20125;DHT22;10223;50.862;4.360;2023-07-16T11:02:14;20.10;99.90
20125;DHT22;10223;50.862;4.360;2023-07-16T11:04:42;20.00;99.90
20125;DHT22;10223;50.862;4.360;2023-07-16T11:07:10;19.90;99.90
20125;DHT22;10223;50.862;4.360;2023-07-16T11:09:42;19.80;99.90
20125;DHT22;10223;50.862;4.360;2023-07-16T11:12:11;19.90;99.90
20125;DHT22;10223;50.862;4.360;2023-07-16T11:14:38;19.90;99.90
20125;DHT22;10223;50.862;4.360;2023-07-16T11:17:06;19.70;99.90
20125;DHT22;10223;50.862;4.360;2023-07-16T11:19:34;19.70;99.90
20125;DHT22;10223;50.862;4.360;2023-07-16T11:22:02;19.70;99.90
20125;DHT22;10223;50.862;4.360;2023-07-16T11:24:35;19.70;99.90
20125;DHT22;10223;50.862;4.360;2023-07-16T11:27:05;19.80;99.90
20125;DHT22;10223;50.862;4.360;2023-07-16T11:29:34;20.00;99.90
20125;DHT22;10223;50.862;4.360;2023-07-16T11:32:01;20.10;99.90
20125;DHT22;10223;50.862;4.360;2023-07-16T11:34:28;20.40;99.90
20125;DHT22;10223;50.862;4.360;2023-07-16T11:36:55;20.50;99.90
20125;DHT22;10223;50.862;4.360;2023-07-16T11:39:27;20.80;99.90
20125;DHT22;10223;50.862;4.360;2023-07-16T11:41:55;21.00;99.90
20125;DHT22;10223;50.862;4.360;2023-07-16T11:44:24;20.90;99.90
20125;DHT22;10223;50.862;4.360;2023-07-16T11:46:51;21.00;99.90
20125;DHT22;10223;50.862;4.360;2023-07-16T11:49:19;21.10;99.90
20125;DHT22;10223;50.862;4.360;2023-07-16T11:51:45;21.20;99.90
20125;DHT22;10223;50.862;4.360;2023-07-16T11:54:12;21.40;99.90
20125;DHT22;10223;50.862;4.360;2023-07-16T11:56:39;21.40;99.90
20125;DHT22;10223;50.862;4.360;2023-07-16T11:59:06;21.60;99.90
20125;DHT22;10223;50.862;4.360;2023-07-16T12:01:34;21.60;99.90
20125;DHT22;10223;50.862;4.360;2023-07-16T12:04:01;21.50;99.90
20125;DHT22;10223;50.862;4.360;2023-07-16T12:06:28;21.70;99.90
20125;DHT22;10223;50.862;4.360;2023-07-16T12:08:55;22.10;99.90
20125;DHT22;10223;50.862;4.360;2023-07-16T12:11:22;22.30;99.90
20125;DHT22;10223;50.862;4.360;2023-07-16T12:13:48;22.20;99.90
20125;DHT22;10223;50.862;4.360;2023-07-16T12:16:15;21.90;99.90
20125;DHT22;10223;50.862;4.360;2023-07-16T12:18:44;21.60;99.90
20125;DHT22;10223;50.862;4.360;2023-07-16T12:21:10;21.20;99.90
20125;DHT22;10223;50.862;4.360;2023-07-16T12:23:37;21.40;99.90
20125;DHT22;10223;50.862;4.360;2023-07-16T12:26:04;21.50;99.90
20125;DHT22;10223;50.862;4.360;2023-07-16T12:28:31;21.40;99.90
20125;DHT22;10223;50.862;4.360;2023-07-16T12:30:58;21.30;99.90
20125;DHT22;10223;50.862;4.360;2023-07-16T12:33:25;21.40;99.90
20125;DHT22;10223;50.862;4.360;2023-07-16T12:35:53;21.20;99.90
20125;DHT22;10223;50.862;4.360;2023-07-16T12:38:20;21.30;99.90
20125;DHT22;10223;50.862;4.360;2023-07-16T12:40:48;21.30;99.90
20125;DHT22;10223;50.862;4.360;2023-07-16T12:43:15;21.30;99.90
20125;DHT22;10223;50.862;4.360;2023-07-16T12:45:41;21.50;99.90
20125;DHT22;10223;50.862;4.360;2023-07-16T12:48:08;21.90;99.90
20125;DHT22;10223;50.862;4.360;2023-07-16T12:50:35;21.90;99.90
20125;DHT22;10223;50.862;4.360;2023-07-16T12:53:03;22.10;99.90
20125;DHT22;10223;50.862;4.360;2023-07-16T12:55:30;22.30;99.90
20125;DHT22;10223;50.862;4.360;2023-07-16T12:57:59;22.40;99.90
20125;DHT22;10223;50.862;4.360;2023-07-16T13:00:26;22.30;99.90
20125;DHT22;10223;50.862;4.360;2023-07-16T13:02:53;22.20;99.90
20125;DHT22;10223;50.862;4.360;2023-07-16T13:05:20;22.30;99.90
20125;DHT22;10223;50.862;4.360;2023-07-16T13:07:47;22.40;99.90
20125;DHT22;10223;50.862;4.360;2023-07-16T13:10:15;22.10;99.90
20125;DHT22;10223;50.862;4.360;2023-07-16T13:12:42;22.40;99.90
20125;DHT22;10223;50.862;4.360;2023-07-16T13:15:10;22.50;99.90
20125;DHT22;10223;50.862;4.360;2023-07-16T13:17:38;22.70;99.90
20125;DHT22;10223;50.862;4.360;2023-07-16T13:20:06;22.40;99.90
20125;DHT22;10223;50.862;4.360;2023-07-16T13:22:35;22.50;99.90
20125;DHT22;10223;50.862;4.360;2023-07-16T13:25:02;22.60;99.90
20125;DHT22;10223;50.862;4.360;2023-07-16T13:27:30;22.30;99.90
20125;DHT22;10223;50.862;4.360;2023-07-16T13:29:57;22.10;99.90
20125;DHT22;10223;50.862;4.360;2023-07-16T13:32:27;21.90;99.90
20125;DHT22;10223;50.862;4.360;2023-07-16T13:34:54;21.80;99.90
20125;DHT22;10223;50.862;4.360;2023-07-16T13:37:21;21.60;99.90
20125;DHT22;10223;50.862;4.360;2023-07-16T13:39:48;21.50;99.90
20125;DHT22;10223;50.862;4.360;2023-07-16T13:42:17;21.40;99.90
20125;DHT22;10223;50.862;4.360;2023-07-16T13:44:49;21.50;99.90
20125;DHT22;10223;50.862;4.360;2023-07-16T13:47:20;21.70;99.90
20125;DHT22;10223;50.862;4.360;2023-07-16T13:49:47;21.80;99.90
20125;DHT22;10223;50.862;4.360;2023-07-16T13:52:14;21.70;99.90
20125;DHT22;10223;50.862;4.360;2023-07-16T13:54:41;21.50;99.90
20125;DHT22;10223;50.862;4.360;2023-07-16T13:57:08;21.40;99.90
20125;DHT22;10223;50.862;4.360;2023-07-16T13:59:35;21.40;99.90
20125;DHT22;10223;50.862;4.360;2023-07-16T14:02:03;21.40;99.90
20125;DHT22;10223;50.862;4.360;2023-07-16T14:04:31;21.50;99.90
20125;DHT22;10223;50.862;4.360;2023-07-16T14:06:59;21.60;99.90
20125;DHT22;10223;50.862;4.360;2023-07-16T14:09:26;22.00;99.90
20125;DHT22;10223;50.862;4.360;2023-07-16T14:11:53;22.30;99.90
20125;DHT22;10223;50.862;4.360;2023-07-16T14:14:21;22.50;99.90
20125;DHT22;10223;50.862;4.360;2023-07-16T14:16:48;23.10;99.90
20125;DHT22;10223;50.862;4.360;2023-07-16T14:19:16;23.60;99.90
20125;DHT22;10223;50.862;4.360;2023-07-16T14:21:43;23.80;99.90
20125;DHT22;10223;50.862;4.360;2023-07-16T14:24:10;23.50;99.90
20125;DHT22;10223;50.862;4.360;2023-07-16T14:26:37;23.10;99.90
20125;DHT22;10223;50.862;4.360;2023-07-16T14:29:04;23.00;99.90
20125;DHT22;10223;50.862;4.360;2023-07-16T14:31:31;23.10;99.90
20125;DHT22;10223;50.862;4.360;2023-07-16T14:34:06;23.00;99.90
20125;DHT22;10223;50.862;4.360;2023-07-16T14:36:34;23.10;99.90
20125;DHT22;10223;50.862;4.360;2023-07-16T14:39:01;23.50;99.90
20125;DHT22;10223;50.862;4.360;2023-07-16T14:41:29;23.60;99.90
20125;DHT22;10223;50.862;4.360;2023-07-16T14:43:56;23.70;99.90
20125;DHT22;10223;50.862;4.360;2023-07-16T14:46:23;23.50;99.90
20125;DHT22;10223;50.862;4.360;2023-07-16T14:48:50;23.20;99.90
20125;DHT22;10223;50.862;4.360;2023-07-16T14:51:21;23.10;99.90
20125;DHT22;10223;50.862;4.360;2023-07-16T14:53:50;23.20;99.90
20125;DHT22;10223;50.862;4.360;2023-07-16T14:56:17;23.70;99.90
20125;DHT22;10223;50.862;4.360;2023-07-16T14:58:44;24.30;99.90
20125;DHT22;10223;50.862;4.360;2023-07-16T15:01:14;24.30;99.90
20125;DHT22;10223;50.862;4.360;2023-07-16T15:03:41;23.90;99.90
20125;DHT22;10223;50.862;4.360;2023-07-16T15:06:08;23.70;99.90
20125;DHT22;10223;50.862;4.360;2023-07-16T15:08:35;23.70;99.90
20125;DHT22;10223;50.862;4.360;2023-07-16T15:11:03;23.20;99.90
20125;DHT22;10223;50.862;4.360;2023-07-16T15:13:30;23.10;99.90
20125;DHT22;10223;50.862;4.360;2023-07-16T15:15:57;22.90;99.90
20125;DHT22;10223;50.862;4.360;2023-07-16T15:18:24;22.90;99.90
20125;DHT22;10223;50.862;4.360;2023-07-16T15:20:56;23.00;99.90
20125;DHT22;10223;50.862;4.360;2023-07-16T15:23:24;23.20;99.90
20125;DHT22;10223;50.862;4.360;2023-07-16T15:25:51;23.60;99.90
20125;DHT22;10223;50.862;4.360;2023-07-16T15:28:19;24.20;99.90
20125;DHT22;10223;50.862;4.360;2023-07-16T15:30:46;25.20;99.90
20125;DHT22;10223;50.862;4.360;2023-07-16T15:33:13;25.50;99.90